CheckWX is a tool to help pilots better visualize weather data.  It is not intended as a substitute for an official pre-flight weather briefing.

05:32:08 UTC

KPEO METAR
Penn Yan Airport
Penn Yan, New York, USA
Current

39 mins ago

KPEO 230453Z AUTO 23004KT 10SM CLR 16/13 A3002 RMK AO2 SLP163 T01560133 402440156
Observed
Aug-23 @ 04:53 UTC
Wind
  • 230° at 4 KTS
Visibility
10 SM
Flight Rules
VFR
Cloud Levels
  • Clear skies
Temperature
16°C / 61°F
Dewpoint
13°C / 55°F
Humidity
83%
Altimeter
30.02" Hg
Pressure
1016.62 hPa
Previous

2 hours ago

KPEO 230353Z AUTO 21005KT 10SM CLR 16/12 A3001 RMK AO2 SLP158 T01610122
Observed
Aug-23 @ 03:53 UTC
Wind
  • 210° at 5 KTS
Visibility
10 SM
Flight Rules
VFR
Cloud Levels
  • Clear skies
Temperature
16°C / 61°F
Dewpoint
12°C / 54°F
Humidity
77%
Altimeter
30.01" Hg
Pressure
1016.22 hPa
Previous

3 hours ago

KPEO 230253Z AUTO 20004KT 10SM CLR 16/12 A3000 RMK AO2 SLP155 T01610117 51011
Observed
Aug-23 @ 02:53 UTC
Wind
  • 200° at 4 KTS
Visibility
10 SM
Flight Rules
VFR
Cloud Levels
  • Clear skies
Temperature
16°C / 61°F
Dewpoint
12°C / 54°F
Humidity
77%
Altimeter
30" Hg
Pressure
1015.92 hPa